Time;durP1;ratioP1;P1;durP2;ratioP2;P2;SDS_P1;SDS_P2;PMS_P1;PMS_P2;Temp;Humidity;BMP_temperature;BMP_pressure;BME280_temperature;BME280_humidity;BME280_pressure;Samples;Min_cycle;Max_cycle;Signal;HPM_P1;HPM_P2
2023/09/11 00:00:25;;;;;;;;;20.00;20.00;;;;;;;;5064514;28;8741;-76
2023/09/11 00:02:52;;;;;;;;;18.75;18.75;;;;;;;;5072179;28;8975;-77
2023/09/11 00:05:19;;;;;;;;;20.75;19.50;;;;;;;;5065956;28;8844;-77
2023/09/11 00:07:46;;;;;;;;;16.00;16.00;;;;;;;;5071336;28;8888;-78
2023/09/11 00:10:15;;;;;;;;;19.50;18.50;;;;;;;;5070546;28;8951;-76
2023/09/11 00:12:42;;;;;;;;;22.25;20.75;;;;;;;;5069452;28;8848;-78
2023/09/11 00:15:10;;;;;;;;;25.50;22.75;;;;;;;;5070457;28;8864;-77
2023/09/11 00:17:38;;;;;;;;;21.75;21.75;;;;;;;;5068974;28;8863;-82
2023/09/11 00:20:10;;;;;;;;;19.50;19.50;;;;;;;;5068652;28;8955;-80
2023/09/11 00:22:37;;;;;;;;;19.25;19.25;;;;;;;;5068307;28;8836;-77
2023/09/11 00:25:06;;;;;;;;;24.00;22.50;;;;;;;;5068547;28;8845;-78
2023/09/11 00:27:36;;;;;;;;;25.25;25.25;;;;;;;;5068713;28;8851;-78
2023/09/11 00:30:07;;;;;;;;;14.25;13.00;;;;;;;;5067722;28;8860;-78
2023/09/11 00:32:34;;;;;;;;;25.75;25.75;;;;;;;;5068355;28;8884;-77
2023/09/11 00:35:01;;;;;;;;;17.50;17.50;;;;;;;;5068767;28;8863;-83
2023/09/11 00:37:28;;;;;;;;;21.00;18.50;;;;;;;;5069203;28;8865;-84
2023/09/11 00:39:55;;;;;;;;;22.75;22.50;;;;;;;;5067847;28;8872;-81
2023/09/11 00:42:23;;;;;;;;;19.00;18.50;;;;;;;;5068331;28;8899;-77
2023/09/11 00:44:52;;;;;;;;;20.25;20.25;;;;;;;;5067433;28;8864;-78
2023/09/11 00:47:19;;;;;;;;;21.25;21.25;;;;;;;;5068094;28;8833;-81
2023/09/11 00:49:47;;;;;;;;;21.00;19.75;;;;;;;;5067628;28;8884;-77
2023/09/11 00:52:14;;;;;;;;;20.50;20.50;;;;;;;;5068357;28;8915;-76
2023/09/11 00:54:41;;;;;;;;;19.75;19.75;;;;;;;;5068263;28;8967;-78
2023/09/11 00:57:09;;;;;;;;;22.50;19.50;;;;;;;;5068707;28;8863;-79
2023/09/11 00:59:36;;;;;;;;;25.00;24.00;;;;;;;;5068293;28;8849;-78
2023/09/11 01:02:05;;;;;;;;;22.50;20.75;;;;;;;;5067637;28;8793;-77
2023/09/11 01:04:35;;;;;;;;;23.25;22.50;;;;;;;;5066493;28;8848;-76
2023/09/11 01:07:02;;;;;;;;;18.75;18.75;;;;;;;;5067638;28;8840;-79
2023/09/11 01:09:30;;;;;;;;;21.00;19.50;;;;;;;;5067359;28;8866;-80
2023/09/11 01:11:57;;;;;;;;;24.50;22.00;;;;;;;;5067400;28;8868;-80
2023/09/11 01:14:24;;;;;;;;;22.50;20.50;;;;;;;;5067679;28;8863;-76
2023/09/11 01:16:56;;;;;;;;;24.25;23.50;;;;;;;;5067552;28;8971;-76
2023/09/11 01:19:46;;;;;;;;;20.00;20.00;;;;;;;;5067667;28;8860;-78
2023/09/11 01:22:34;;;;;;;;;23.75;20.50;;;;;;;;5067867;28;8878;-77
2023/09/11 01:25:32;;;;;;;;;23.50;23.50;;;;;;;;5067944;28;8848;-76
2023/09/11 01:28:15;;;;;;;;;26.25;23.50;;;;;;;;5039843;28;8872;-77
2023/09/11 01:30:44;;;;;;;;;25.00;23.25;;;;;;;;5057556;28;8777;-76
2023/09/11 01:33:12;;;;;;;;;25.00;25.00;;;;;;;;5070845;28;8870;-77
2023/09/11 01:35:39;;;;;;;;;23.75;22.00;;;;;;;;5053160;28;8844;-77
2023/09/11 01:38:06;;;;;;;;;23.75;23.75;;;;;;;;5071029;28;8982;-78
2023/09/11 01:40:36;;;;;;;;;26.25;26.25;;;;;;;;5071030;28;8882;-77
2023/09/11 01:43:06;;;;;;;;;22.50;22.50;;;;;;;;5070731;28;8861;-77
2023/09/11 01:45:35;;;;;;;;;27.50;26.75;;;;;;;;5068218;28;8925;-77
2023/09/11 01:48:05;;;;;;;;;25.00;25.00;;;;;;;;5069183;28;8836;-78
2023/09/11 01:50:33;;;;;;;;;25.75;25.75;;;;;;;;5070968;28;8844;-80
2023/09/11 01:53:00;;;;;;;;;28.25;28.25;;;;;;;;5070448;28;8860;-80
2023/09/11 01:55:28;;;;;;;;;26.75;26.75;;;;;;;;5070584;28;8864;-84
2023/09/11 01:57:56;;;;;;;;;32.00;28.75;;;;;;;;5071052;28;8878;-78
2023/09/11 02:00:23;;;;;;;;;25.25;24.75;;;;;;;;5070596;28;8875;-79
2023/09/11 02:02:54;;;;;;;;;25.50;25.00;;;;;;;;5070504;28;8849;-80
2023/09/11 02:05:23;;;;;;;;;26.25;23.25;;;;;;;;5070720;28;9652;-77
2023/09/11 02:07:50;;;;;;;;;24.00;23.25;;;;;;;;5066833;28;8870;-78
2023/09/11 02:10:18;;;;;;;;;24.75;24.75;;;;;;;;5066835;28;8878;-78
2023/09/11 02:12:45;;;;;;;;;28.00;27.00;;;;;;;;5070593;28;8920;-76
2023/09/11 02:15:12;;;;;;;;;28.75;28.75;;;;;;;;5070967;28;8875;-77
2023/09/11 02:17:39;;;;;;;;;30.75;28.25;;;;;;;;5069495;28;8959;-79
2023/09/11 02:20:08;;;;;;;;;23.75;23.75;;;;;;;;5071739;28;8987;-80
2023/09/11 02:22:36;;;;;;;;;24.75;24.75;;;;;;;;5071577;28;9651;-77
2023/09/11 02:25:03;;;;;;;;;27.00;26.00;;;;;;;;5070450;28;8886;-76
2023/09/11 02:27:31;;;;;;;;;27.50;26.50;;;;;;;;5070594;28;8976;-77
2023/09/11 02:29:58;;;;;;;;;23.50;20.25;;;;;;;;5069823;28;8874;-80
2023/09/11 02:32:25;;;;;;;;;23.25;22.50;;;;;;;;5069160;28;8927;-77
2023/09/11 02:34:52;;;;;;;;;23.50;22.75;;;;;;;;5069971;28;8867;-76
2023/09/11 02:37:21;;;;;;;;;23.75;22.25;;;;;;;;5069465;28;8832;-78
2023/09/11 02:39:49;;;;;;;;;22.00;21.00;;;;;;;;5069902;28;8848;-77
2023/09/11 02:42:16;;;;;;;;;24.25;21.50;;;;;;;;5069770;28;8876;-80
2023/09/11 02:44:44;;;;;;;;;23.75;23.00;;;;;;;;5069935;28;8860;-76
2023/09/11 02:47:11;;;;;;;;;25.50;23.75;;;;;;;;5069435;28;8853;-77
2023/09/11 02:49:38;;;;;;;;;22.25;19.25;;;;;;;;5082422;28;8987;-80
2023/09/11 02:52:06;;;;;;;;;28.50;27.25;;;;;;;;5069762;28;8860;-77
2023/09/11 02:54:33;;;;;;;;;23.00;22.75;;;;;;;;5069625;28;8844;-78
2023/09/11 02:57:01;;;;;;;;;19.50;19.50;;;;;;;;5069562;28;8882;-76
2023/09/11 02:59:29;;;;;;;;;23.50;22.00;;;;;;;;5068697;28;8840;-77
2023/09/11 03:01:56;;;;;;;;;22.75;21.25;;;;;;;;5067295;28;9590;-76
2023/09/11 03:04:23;;;;;;;;;23.75;23.00;;;;;;;;5059176;28;8981;-75
2023/09/11 03:06:50;;;;;;;;;23.75;23.75;;;;;;;;5071103;28;8981;-76
2023/09/11 03:09:17;;;;;;;;;26.25;23.75;;;;;;;;5073419;28;8983;-76
2023/09/11 03:11:44;;;;;;;;;21.75;21.25;;;;;;;;5072285;28;8844;-76
2023/09/11 03:14:17;;;;;;;;;22.50;22.50;;;;;;;;5072889;28;9016;-76
2023/09/11 03:16:44;;;;;;;;;29.75;25.00;;;;;;;;5073000;28;8859;-77
2023/09/11 03:19:11;;;;;;;;;26.50;26.50;;;;;;;;5070181;28;8987;-81
2023/09/11 03:21:41;;;;;;;;;27.50;24.50;;;;;;;;5069542;28;8853;-85
2023/09/11 03:24:11;;;;;;;;;26.75;26.75;;;;;;;;5069787;28;8869;-86
2023/09/11 03:26:40;;;;;;;;;26.00;25.50;;;;;;;;5069274;28;8858;-85
2023/09/11 03:29:07;;;;;;;;;16.75;16.75;;;;;;;;5069504;28;8966;-79
2023/09/11 03:31:36;;;;;;;;;32.00;27.00;;;;;;;;5068056;28;8815;-80
2023/09/11 03:34:03;;;;;;;;;25.25;25.25;;;;;;;;5069229;28;8969;-78
2023/09/11 03:36:30;;;;;;;;;24.25;23.25;;;;;;;;5068557;28;9722;-76
2023/09/11 03:38:57;;;;;;;;;26.00;23.50;;;;;;;;5068850;28;8829;-79
2023/09/11 03:41:25;;;;;;;;;26.50;26.50;;;;;;;;5068514;28;8975;-76
2023/09/11 03:43:52;;;;;;;;;25.00;22.00;;;;;;;;5069893;28;9810;-75
2023/09/11 03:46:19;;;;;;;;;25.25;25.25;;;;;;;;5070006;28;8845;-76
2023/09/11 03:48:48;;;;;;;;;26.00;26.00;;;;;;;;5067702;28;8862;-75
2023/09/11 03:51:15;;;;;;;;;30.00;26.50;;;;;;;;5068169;28;8849;-78
2023/09/11 03:53:44;;;;;;;;;29.50;27.25;;;;;;;;5067906;28;8852;-78
2023/09/11 03:56:11;;;;;;;;;26.00;26.00;;;;;;;;5055884;28;8913;-81
2023/09/11 03:58:38;;;;;;;;;29.50;28.00;;;;;;;;5068246;28;9649;-79
2023/09/11 04:01:06;;;;;;;;;25.00;24.25;;;;;;;;5067965;28;8886;-78
2023/09/11 04:03:33;;;;;;;;;26.25;24.50;;;;;;;;5067837;28;8864;-78
2023/09/11 04:06:02;;;;;;;;;26.50;24.00;;;;;;;;5068012;28;8868;-78
2023/09/11 04:08:29;;;;;;;;;29.00;27.25;;;;;;;;5067830;28;8921;-79
2023/09/11 04:10:56;;;;;;;;;26.50;24.25;;;;;;;;5068358;28;8852;-78
2023/09/11 04:13:23;;;;;;;;;31.75;27.50;;;;;;;;5068793;28;8844;-77
2023/09/11 04:15:53;;;;;;;;;25.25;25.25;;;;;;;;5068002;28;9649;-71
2023/09/11 04:18:20;;;;;;;;;26.50;26.50;;;;;;;;5066644;28;8980;-74
2023/09/11 04:20:47;;;;;;;;;30.00;28.00;;;;;;;;5067757;28;8964;-71
2023/09/11 04:23:15;;;;;;;;;36.50;32.00;;;;;;;;5066875;28;8893;-70
2023/09/11 04:25:45;;;;;;;;;30.75;28.50;;;;;;;;5066753;28;8852;-69
2023/09/11 04:28:12;;;;;;;;;30.25;29.00;;;;;;;;5067220;28;8887;-70
2023/09/11 04:30:39;;;;;;;;;25.50;24.00;;;;;;;;5067796;28;8772;-70
2023/09/11 04:33:07;;;;;;;;;32.75;29.75;;;;;;;;5067343;28;8867;-71
2023/09/11 04:35:34;;;;;;;;;29.75;28.25;;;;;;;;5067768;28;8848;-69
2023/09/11 04:38:01;;;;;;;;;32.00;29.25;;;;;;;;5067059;28;8857;-71
2023/09/11 04:40:30;;;;;;;;;35.75;29.25;;;;;;;;5067877;28;8844;-70
2023/09/11 04:42:57;;;;;;;;;28.75;27.00;;;;;;;;5069171;28;8848;-70
2023/09/11 04:45:24;;;;;;;;;34.00;30.25;;;;;;;;5069313;28;8878;-69
2023/09/11 04:47:54;;;;;;;;;26.25;26.25;;;;;;;;5068806;28;8844;-71
2023/09/11 04:50:21;;;;;;;;;31.50;29.50;;;;;;;;5070262;28;8865;-70
2023/09/11 04:52:48;;;;;;;;;25.75;25.75;;;;;;;;5068478;28;8840;-76
2023/09/11 04:55:17;;;;;;;;;30.00;27.75;;;;;;;;5067189;28;8963;-72
2023/09/11 04:57:45;;;;;;;;;30.50;28.75;;;;;;;;5065834;28;8840;-71
2023/09/11 05:00:13;;;;;;;;;28.00;26.00;;;;;;;;5066802;28;8867;-73
2023/09/11 05:02:41;;;;;;;;;29.25;27.50;;;;;;;;5067356;28;8891;-70
2023/09/11 05:05:08;;;;;;;;;31.50;29.75;;;;;;;;5067108;28;8856;-70
2023/09/11 05:07:35;;;;;;;;;24.25;24.00;;;;;;;;5066640;28;8862;-75
2023/09/11 05:10:05;;;;;;;;;28.75;25.25;;;;;;;;5067153;28;8878;-70
2023/09/11 05:12:32;;;;;;;;;25.25;25.25;;;;;;;;5068414;28;8848;-70
2023/09/11 05:15:01;;;;;;;;;23.75;23.75;;;;;;;;5066493;28;8858;-72
2023/09/11 05:17:28;;;;;;;;;26.25;25.50;;;;;;;;5066900;28;8978;-76
2023/09/11 05:19:55;;;;;;;;;27.75;26.75;;;;;;;;5066876;28;8833;-83
2023/09/11 05:22:25;;;;;;;;;27.00;26.00;;;;;;;;5069663;28;8836;-76
2023/09/11 05:24:53;;;;;;;;;27.25;27.00;;;;;;;;5070716;28;8829;-77
2023/09/11 05:27:21;;;;;;;;;27.00;27.00;;;;;;;;5070610;28;8852;-76
2023/09/11 05:29:52;;;;;;;;;28.00;27.00;;;;;;;;5069963;28;8848;-79
2023/09/11 05:32:25;;;;;;;;;29.25;24.75;;;;;;;;5069750;28;8797;-76
2023/09/11 05:34:54;;;;;;;;;28.25;27.50;;;;;;;;5070652;28;8848;-78
2023/09/11 05:37:21;;;;;;;;;24.00;24.00;;;;;;;;5069413;28;8961;-78
2023/09/11 05:39:49;;;;;;;;;27.00;24.75;;;;;;;;5070503;28;8855;-78
2023/09/11 05:42:16;;;;;;;;;30.00;29.25;;;;;;;;5070243;28;9599;-78
2023/09/11 05:44:44;;;;;;;;;25.25;24.00;;;;;;;;5070358;28;8860;-77
2023/09/11 05:47:11;;;;;;;;;26.50;24.00;;;;;;;;5070516;28;8856;-77
2023/09/11 05:49:40;;;;;;;;;31.25;29.25;;;;;;;;5070628;28;8836;-78
2023/09/11 05:52:07;;;;;;;;;27.75;25.75;;;;;;;;5070825;28;8853;-80
2023/09/11 05:54:35;;;;;;;;;31.00;29.50;;;;;;;;5072049;28;8896;-77
2023/09/11 05:57:03;;;;;;;;;28.50;28.00;;;;;;;;5070737;28;8860;-77
2023/09/11 05:59:30;;;;;;;;;45.50;36.00;;;;;;;;5069358;28;8863;-79
2023/09/11 06:01:57;;;;;;;;;57.25;45.25;;;;;;;;5069727;28;8927;-78
2023/09/11 06:04:24;;;;;;;;;32.75;29.50;;;;;;;;5070452;28;8856;-76
2023/09/11 06:06:53;;;;;;;;;45.25;39.00;;;;;;;;5070340;28;9750;-77
2023/09/11 06:09:20;;;;;;;;;46.50;37.50;;;;;;;;5070063;28;8852;-76
2023/09/11 06:11:47;;;;;;;;;32.75;31.50;;;;;;;;5070531;28;8868;-78
2023/09/11 06:14:14;;;;;;;;;39.50;34.25;;;;;;;;5071463;28;8986;-77
2023/09/11 06:16:43;;;;;;;;;29.75;28.75;;;;;;;;5073444;28;8840;-76
2023/09/11 06:19:11;;;;;;;;;32.75;31.50;;;;;;;;5074442;28;8848;-78
2023/09/11 06:21:38;;;;;;;;;39.25;35.50;;;;;;;;5074450;28;8844;-77
2023/09/11 06:24:07;;;;;;;;;37.75;31.50;;;;;;;;5075149;28;8884;-77
2023/09/11 06:26:34;;;;;;;;;40.00;34.25;;;;;;;;5072434;28;8866;-77
2023/09/11 06:29:02;;;;;;;;;36.75;33.75;;;;;;;;5069382;28;8852;-78
2023/09/11 06:31:29;;;;;;;;;38.00;33.75;;;;;;;;5068613;28;8797;-78
2023/09/11 06:33:56;;;;;;;;;34.00;32.00;;;;;;;;5070554;28;8846;-77
2023/09/11 06:36:24;;;;;;;;;36.75;32.50;;;;;;;;5070484;28;9623;-77
2023/09/11 06:38:51;;;;;;;;;32.25;31.25;;;;;;;;5070092;28;8867;-81
2023/09/11 06:41:20;;;;;;;;;34.75;32.75;;;;;;;;5069840;28;8910;-81
2023/09/11 06:43:47;;;;;;;;;49.75;41.25;;;;;;;;5068904;28;9455;-76
2023/09/11 06:46:16;;;;;;;;;28.50;27.50;;;;;;;;5068561;28;8983;-77
2023/09/11 06:48:44;;;;;;;;;30.00;27.75;;;;;;;;5069062;28;8852;-76
2023/09/11 06:51:11;;;;;;;;;28.75;28.75;;;;;;;;5069355;28;9776;-79
2023/09/11 06:53:38;;;;;;;;;28.75;27.75;;;;;;;;5070374;28;8845;-79
2023/09/11 06:56:08;;;;;;;;;25.75;25.75;;;;;;;;5069545;28;8836;-76
2023/09/11 06:58:38;;;;;;;;;30.00;29.50;;;;;;;;5068962;28;8856;-76
2023/09/11 07:01:05;;;;;;;;;33.75;31.00;;;;;;;;5068062;28;8813;-75
2023/09/11 07:03:32;;;;;;;;;32.25;30.75;;;;;;;;5068423;28;8867;-76
2023/09/11 07:05:59;;;;;;;;;34.00;32.00;;;;;;;;5068620;28;8848;-75
2023/09/11 07:08:27;;;;;;;;;32.75;30.75;;;;;;;;5068100;28;8886;-76
2023/09/11 07:10:56;;;;;;;;;27.75;26.50;;;;;;;;5069271;28;8847;-79
2023/09/11 07:13:23;;;;;;;;;31.25;29.50;;;;;;;;5068389;28;9004;-76
2023/09/11 07:15:59;;;;;;;;;29.75;29.25;;;;;;;;5068812;28;8948;-76
2023/09/11 07:18:27;;;;;;;;;36.75;32.75;;;;;;;;5068269;28;8869;-77
2023/09/11 07:20:55;;;;;;;;;29.50;29.25;;;;;;;;5068602;28;8987;-77
2023/09/11 07:23:24;;;;;;;;;32.50;31.00;;;;;;;;5067796;28;8848;-76
2023/09/11 07:25:52;;;;;;;;;32.00;29.00;;;;;;;;5068249;28;8832;-77
2023/09/11 07:28:19;;;;;;;;;28.00;28.00;;;;;;;;5068029;28;8982;-76
2023/09/11 07:30:46;;;;;;;;;32.50;29.25;;;;;;;;5067985;28;8764;-76
2023/09/11 07:33:14;;;;;;;;;23.00;23.00;;;;;;;;5067548;28;8891;-76
2023/09/11 07:35:42;;;;;;;;;30.50;29.25;;;;;;;;5068152;28;8849;-76
2023/09/11 07:38:09;;;;;;;;;31.00;29.00;;;;;;;;5067380;28;8855;-75
2023/09/11 07:40:38;;;;;;;;;33.25;29.50;;;;;;;;5068342;28;8854;-76
2023/09/11 07:43:05;;;;;;;;;27.80;27.80;;;;;;;;5068551;28;8875;-78
2023/09/11 07:45:33;;;;;;;;;30.40;26.80;;;;;;;;5068828;28;8852;-78
2023/09/11 07:48:00;;;;;;;;;30.00;28.40;;;;;;;;5070875;28;8844;-76
2023/09/11 07:50:28;;;;;;;;;29.40;28.80;;;;;;;;5072794;28;8863;-79
2023/09/11 07:52:56;;;;;;;;;28.60;26.00;;;;;;;;5073970;28;8989;-79
2023/09/11 07:55:23;;;;;;;;;26.40;25.00;;;;;;;;5073052;28;8849;-78
2023/09/11 07:57:52;;;;;;;;;25.80;24.40;;;;;;;;5073787;28;8872;-77
2023/09/11 08:00:19;;;;;;;;;18.80;18.80;;;;;;;;5070244;28;8987;-74
2023/09/11 08:02:48;;;;;;;;;20.80;17.60;;;;;;;;5067465;28;8932;-74
2023/09/11 08:05:15;;;;;;;;;20.60;18.80;;;;;;;;5067408;28;8864;-74
2023/09/11 08:07:44;;;;;;;;;24.20;24.20;;;;;;;;5067858;28;9520;-74
2023/09/11 08:10:11;;;;;;;;;22.20;21.20;;;;;;;;5067031;28;8879;-74
2023/09/11 08:12:38;;;;;;;;;15.80;15.80;;;;;;;;5067580;28;8880;-74
2023/09/11 08:15:06;;;;;;;;;20.20;18.00;;;;;;;;5067050;28;9401;-83
2023/09/11 08:17:33;;;;;;;;;21.60;17.00;;;;;;;;5067066;28;8925;-75
2023/09/11 08:20:00;;;;;;;;;16.20;14.20;;;;;;;;5067097;28;8921;-74
2023/09/11 08:22:28;;;;;;;;;20.20;18.80;;;;;;;;5067256;28;8845;-78
2023/09/11 08:24:56;;;;;;;;;15.40;15.40;;;;;;;;5067004;28;8856;-74
2023/09/11 08:27:23;;;;;;;;;15.40;14.20;;;;;;;;5067425;28;8860;-80
2023/09/11 08:29:52;;;;;;;;;21.40;18.40;;;;;;;;5066777;28;8868;-74
2023/09/11 08:32:19;;;;;;;;;14.20;13.40;;;;;;;;5068119;28;8801;-84
2023/09/11 08:34:47;;;;;;;;;17.20;17.00;;;;;;;;5067027;28;8975;-77
2023/09/11 08:37:16;;;;;;;;;16.80;15.00;;;;;;;;5067638;28;8872;-75
2023/09/11 08:39:43;;;;;;;;;14.60;14.60;;;;;;;;5067180;28;8837;-81
2023/09/11 08:42:13;;;;;;;;;9.60;9.00;;;;;;;;5066487;28;8860;-75
2023/09/11 08:44:41;;;;;;;;;14.80;14.80;;;;;;;;5067021;28;9654;-76
2023/09/11 08:47:08;;;;;;;;;17.20;16.60;;;;;;;;5066406;28;8860;-75
2023/09/11 08:49:41;;;;;;;;;14.20;14.20;;;;;;;;5067058;28;8840;-75
2023/09/11 08:52:13;;;;;;;;;13.80;13.80;;;;;;;;5066898;28;8861;-75
2023/09/11 08:54:43;;;;;;;;;15.40;14.20;;;;;;;;5067396;28;8859;-74
2023/09/11 08:57:12;;;;;;;;;13.80;12.00;;;;;;;;5067917;28;8825;-77
2023/09/11 08:59:44;;;;;;;;;12.60;12.60;;;;;;;;5071800;28;8841;-78
2023/09/11 09:02:11;;;;;;;;;14.60;14.60;;;;;;;;5070589;28;8793;-78
2023/09/11 09:04:44;;;;;;;;;18.80;15.40;;;;;;;;5071512;28;8860;-80
2023/09/11 09:07:12;;;;;;;;;19.80;15.60;;;;;;;;5070946;28;8836;-78
2023/09/11 09:09:40;;;;;;;;;12.00;12.00;;;;;;;;5071809;28;8867;-77
2023/09/11 09:12:08;;;;;;;;;10.60;10.60;;;;;;;;5071569;28;8872;-75
2023/09/11 09:14:39;;;;;;;;;15.80;14.00;;;;;;;;5071701;28;9730;-78
2023/09/11 09:17:06;;;;;;;;;16.60;14.20;;;;;;;;5071089;28;8856;-78
2023/09/11 09:19:34;;;;;;;;;11.80;11.00;;;;;;;;5071680;28;9738;-79
2023/09/11 09:22:12;;;;;;;;;11.60;11.60;;;;;;;;5072735;28;8863;-77
2023/09/11 09:24:50;;;;;;;;;11.20;11.20;;;;;;;;5075007;28;8898;-82
2023/09/11 09:27:19;;;;;;;;;11.60;11.60;;;;;;;;5076906;28;9442;-79
2023/09/11 09:29:49;;;;;;;;;13.60;11.80;;;;;;;;5076323;28;8848;-80
2023/09/11 09:32:18;;;;;;;;;10.40;10.40;;;;;;;;5068213;28;8789;-79
2023/09/11 09:34:50;;;;;;;;;11.80;10.00;;;;;;;;5077052;28;8990;-80
2023/09/11 09:37:24;;;;;;;;;13.00;13.00;;;;;;;;5070997;28;9244;-83
2023/09/11 09:39:57;;;;;;;;;15.60;15.60;;;;;;;;5069012;28;8852;-81
2023/09/11 09:42:26;;;;;;;;;14.20;12.20;;;;;;;;5070190;28;8852;-79
2023/09/11 09:44:58;;;;;;;;;11.60;11.60;;;;;;;;5071169;28;8903;-81
2023/09/11 09:47:25;;;;;;;;;17.40;17.00;;;;;;;;5070647;28;8928;-81
2023/09/11 09:49:56;;;;;;;;;13.40;13.40;;;;;;;;5070664;28;8878;-80
2023/09/11 09:52:27;;;;;;;;;14.40;13.80;;;;;;;;5070958;28;8837;-80
2023/09/11 09:54:56;;;;;;;;;13.80;12.40;;;;;;;;5071864;28;8883;-80
2023/09/11 09:57:24;;;;;;;;;13.00;13.00;;;;;;;;5071741;28;8933;-85
2023/09/11 09:59:54;;;;;;;;;16.60;14.20;;;;;;;;5073856;28;8882;-85
2023/09/11 10:02:26;;;;;;;;;13.00;11.80;;;;;;;;5072902;28;8916;-85
2023/09/11 10:04:54;;;;;;;;;11.00;11.00;;;;;;;;5072623;28;8963;-86
2023/09/11 10:07:42;;;;;;;;;11.00;11.00;;;;;;;;5070323;28;8844;-89
2023/09/11 10:10:23;;;;;;;;;14.60;14.60;;;;;;;;5070384;28;8974;-85
2023/09/11 10:13:04;;;;;;;;;15.20;14.00;;;;;;;;5070509;28;8852;-81
2023/09/11 10:15:36;;;;;;;;;9.80;9.80;;;;;;;;5069624;28;8860;-81
2023/09/11 10:18:05;;;;;;;;;11.00;11.00;;;;;;;;5082565;28;8858;-81
2023/09/11 10:20:35;;;;;;;;;12.60;12.20;;;;;;;;5070398;28;8966;-84
2023/09/11 10:23:04;;;;;;;;;14.80;13.00;;;;;;;;5069355;28;8867;-81
2023/09/11 10:25:34;;;;;;;;;15.40;15.20;;;;;;;;5070332;28;8841;-75
2023/09/11 10:28:05;;;;;;;;;12.40;10.60;;;;;;;;5069463;28;8959;-76
2023/09/11 10:30:41;;;;;;;;;11.80;11.80;;;;;;;;5068988;28;8753;-77
2023/09/11 10:33:15;;;;;;;;;13.40;13.00;;;;;;;;5069474;28;8887;-78
2023/09/11 10:35:42;;;;;;;;;13.40;13.00;;;;;;;;5070910;28;8973;-77
2023/09/11 10:38:10;;;;;;;;;9.20;8.80;;;;;;;;5069041;28;8879;-79
2023/09/11 10:40:39;;;;;;;;;12.40;12.40;;;;;;;;5069409;28;8890;-78
2023/09/11 10:43:06;;;;;;;;;9.80;9.80;;;;;;;;5051864;28;8852;-77
2023/09/11 10:45:36;;;;;;;;;12.60;11.20;;;;;;;;5069193;28;8832;-72
2023/09/11 10:48:04;;;;;;;;;10.40;10.40;;;;;;;;5068994;28;9610;-71
2023/09/11 10:50:33;;;;;;;;;11.00;11.00;;;;;;;;5069000;28;8979;-72
2023/09/11 10:53:00;;;;;;;;;9.00;9.00;;;;;;;;5057431;28;8856;-73
2023/09/11 10:55:27;;;;;;;;;7.80;6.00;;;;;;;;5068628;28;8874;-71
2023/09/11 10:57:57;;;;;;;;;10.20;10.20;;;;;;;;5070206;28;8836;-72
2023/09/11 11:00:26;;;;;;;;;10.60;9.20;;;;;;;;5070405;28;8773;-72
2023/09/11 11:02:56;;;;;;;;;11.00;9.40;;;;;;;;5071370;28;8918;-73
2023/09/11 11:05:23;;;;;;;;;11.20;11.20;;;;;;;;5070851;28;8836;-72
2023/09/11 11:07:52;;;;;;;;;8.60;8.60;;;;;;;;5072048;28;8872;-72
2023/09/11 11:10:21;;;;;;;;;8.60;8.60;;;;;;;;5069999;28;8856;-82
2023/09/11 11:12:48;;;;;;;;;10.80;9.60;;;;;;;;5068950;28;8856;-82
2023/09/11 11:15:26;;;;;;;;;12.20;9.20;;;;;;;;5068812;28;8882;-81
2023/09/11 11:18:14;;;;;;;;;7.80;7.80;;;;;;;;5069695;28;8879;-78
2023/09/11 11:21:02;;;;;;;;;10.40;10.40;;;;;;;;5058286;28;8864;-79
2023/09/11 11:23:33;;;;;;;;;8.80;7.60;;;;;;;;5068559;28;8864;-80
2023/09/11 11:26:03;;;;;;;;;10.00;10.00;;;;;;;;5068297;28;8971;-80
2023/09/11 11:28:39;;;;;;;;;13.20;10.80;;;;;;;;5068347;28;8970;-80
2023/09/11 11:31:08;;;;;;;;;10.80;9.20;;;;;;;;5057584;28;8796;-77
2023/09/11 11:33:37;;;;;;;;;10.60;9.80;;;;;;;;5064897;28;8874;-79
2023/09/11 11:36:08;;;;;;;;;7.00;7.00;;;;;;;;5069061;28;8875;-79
2023/09/11 11:38:36;;;;;;;;;9.80;8.60;;;;;;;;5070506;28;8852;-79
2023/09/11 11:41:04;;;;;;;;;7.00;7.00;;;;;;;;5068471;28;8821;-80
2023/09/11 11:43:34;;;;;;;;;9.00;9.00;;;;;;;;5068154;28;9630;-79
2023/09/11 11:46:03;;;;;;;;;7.80;7.80;;;;;;;;5067636;28;8864;-79
2023/09/11 11:48:31;;;;;;;;;7.00;6.60;;;;;;;;5068550;28;8864;-79
2023/09/11 11:50:59;;;;;;;;;9.20;8.00;;;;;;;;5067510;28;8856;-79
2023/09/11 11:53:27;;;;;;;;;7.00;7.00;;;;;;;;5068198;28;8855;-79
2023/09/11 11:55:56;;;;;;;;;7.80;7.40;;;;;;;;5069013;28;8864;-79
2023/09/11 11:58:25;;;;;;;;;8.80;6.20;;;;;;;;5070215;28;8882;-80
2023/09/11 12:01:00;;;;;;;;;6.40;6.40;;;;;;;;5068781;28;8800;-78
2023/09/11 12:03:27;;;;;;;;;7.80;7.00;;;;;;;;5068728;28;8837;-78
2023/09/11 12:05:55;;;;;;;;;6.60;6.60;;;;;;;;5068132;28;8978;-79
2023/09/11 12:08:24;;;;;;;;;8.40;6.80;;;;;;;;5067765;28;8950;-79
2023/09/11 12:10:51;;;;;;;;;8.60;7.60;;;;;;;;5056415;28;8836;-80
2023/09/11 12:13:20;;;;;;;;;7.80;7.60;;;;;;;;5067621;28;8872;-78
2023/09/11 12:15:53;;;;;;;;;6.00;6.00;;;;;;;;5068705;28;8867;-79
2023/09/11 12:18:20;;;;;;;;;6.40;6.20;;;;;;;;5067397;28;8828;-78
2023/09/11 12:20:54;;;;;;;;;7.00;5.60;;;;;;;;5068188;28;8844;-79
2023/09/11 12:23:23;;;;;;;;;5.80;5.80;;;;;;;;5067739;28;8852;-79
2023/09/11 12:25:51;;;;;;;;;6.60;5.40;;;;;;;;5068662;28;8882;-78
2023/09/11 12:28:22;;;;;;;;;5.60;5.00;;;;;;;;5068371;28;8856;-78
2023/09/11 12:30:51;;;;;;;;;5.20;5.20;;;;;;;;5069297;28;8764;-78
2023/09/11 12:33:24;;;;;;;;;3.60;3.60;;;;;;;;5070416;28;9504;-77
2023/09/11 12:35:53;;;;;;;;;5.00;5.00;;;;;;;;5073650;28;8983;-77
2023/09/11 12:38:20;;;;;;;;;5.20;4.40;;;;;;;;5072918;28;9791;-77
2023/09/11 12:40:49;;;;;;;;;3.40;3.40;;;;;;;;5073170;28;8869;-78
2023/09/11 12:43:18;;;;;;;;;3.60;3.60;;;;;;;;5061997;28;8852;-79
2023/09/11 12:45:45;;;;;;;;;3.60;3.60;;;;;;;;5067958;28;8853;-79
2023/09/11 12:48:13;;;;;;;;;5.20;5.20;;;;;;;;5067554;28;8949;-78
2023/09/11 12:50:41;;;;;;;;;5.20;3.80;;;;;;;;5067127;28;8874;-79
2023/09/11 12:53:09;;;;;;;;;5.20;5.20;;;;;;;;5067402;28;8999;-79
2023/09/11 12:55:38;;;;;;;;;4.00;4.00;;;;;;;;5067054;28;8878;-79
2023/09/11 12:58:08;;;;;;;;;4.00;4.00;;;;;;;;5067017;28;8844;-79
2023/09/11 13:00:36;;;;;;;;;5.40;5.40;;;;;;;;5066515;28;8795;-79
2023/09/11 13:03:06;;;;;;;;;6.00;6.00;;;;;;;;5067071;28;9630;-79
2023/09/11 13:05:33;;;;;;;;;3.80;3.00;;;;;;;;5067194;28;8865;-79
2023/09/11 13:08:00;;;;;;;;;5.00;5.00;;;;;;;;5067475;28;8960;-78
2023/09/11 13:10:31;;;;;;;;;5.00;5.00;;;;;;;;5068299;28;8844;-78
2023/09/11 13:12:58;;;;;;;;;3.00;3.00;;;;;;;;5069283;28;8856;-78
2023/09/11 13:15:26;;;;;;;;;3.80;3.00;;;;;;;;5067645;28;8868;-79
2023/09/11 13:17:54;;;;;;;;;4.00;4.00;;;;;;;;5078981;28;8850;-79
2023/09/11 13:20:21;;;;;;;;;4.20;4.20;;;;;;;;5066706;28;8848;-79
2023/09/11 13:22:48;;;;;;;;;5.40;3.60;;;;;;;;5067907;28;8859;-79
2023/09/11 13:25:15;;;;;;;;;3.40;3.40;;;;;;;;5067540;28;8849;-79
2023/09/11 13:27:42;;;;;;;;;4.00;4.00;;;;;;;;5067294;28;8972;-78
2023/09/11 13:30:10;;;;;;;;;4.40;4.40;;;;;;;;5066878;28;10213;-78
2023/09/11 13:32:40;;;;;;;;;2.80;2.80;;;;;;;;5068132;28;8844;-78
2023/09/11 13:35:09;;;;;;;;;4.40;4.40;;;;;;;;5068614;28;8852;-79
2023/09/11 13:37:36;;;;;;;;;4.40;4.40;;;;;;;;5066745;28;8935;-79
2023/09/11 13:40:05;;;;;;;;;2.60;2.60;;;;;;;;5066735;28;9642;-78
2023/09/11 13:42:32;;;;;;;;;3.40;3.40;;;;;;;;5067473;28;8866;-79
2023/09/11 13:45:00;;;;;;;;;4.80;4.80;;;;;;;;5071103;28;8852;-78
2023/09/11 13:47:27;;;;;;;;;3.60;3.60;;;;;;;;5069284;28;8903;-79
2023/09/11 13:49:56;;;;;;;;;3.60;3.60;;;;;;;;5070903;28;8844;-79
2023/09/11 13:52:23;;;;;;;;;2.60;2.60;;;;;;;;5070225;28;8925;-79
2023/09/11 13:54:53;;;;;;;;;4.00;2.40;;;;;;;;5070990;28;8894;-79
2023/09/11 13:57:20;;;;;;;;;2.60;2.60;;;;;;;;5070513;28;8844;-79
2023/09/11 13:59:47;;;;;;;;;2.00;2.00;;;;;;;;5071670;28;8836;-78
2023/09/11 14:02:15;;;;;;;;;2.40;2.40;;;;;;;;5072214;28;8824;-79
2023/09/11 14:04:43;;;;;;;;;1.80;1.80;;;;;;;;5074811;28;9006;-78
2023/09/11 14:07:12;;;;;;;;;2.40;2.40;;;;;;;;5074938;28;8876;-79
2023/09/11 14:09:39;;;;;;;;;2.00;2.00;;;;;;;;5074449;28;8849;-79
2023/09/11 14:12:07;;;;;;;;;1.25;1.25;;;;;;;;5074032;28;8882;-80
2023/09/11 14:14:35;;;;;;;;;2.20;2.20;;;;;;;;5074441;28;8860;-79
2023/09/11 14:17:06;;;;;;;;;2.80;2.80;;;;;;;;5071740;28;8849;-78
2023/09/11 14:19:34;;;;;;;;;1.00;1.00;;;;;;;;5070936;28;8871;-79
2023/09/11 14:22:01;;;;;;;;;0.60;0.60;;;;;;;;5069072;28;8901;-80
2023/09/11 14:24:30;;;;;;;;;2.80;1.00;;;;;;;;5069716;28;8983;-79
2023/09/11 14:26:57;;;;;;;;;3.80;1.80;;;;;;;;5069847;28;8938;-80
2023/09/11 14:29:24;;;;;;;;;1.00;1.00;;;;;;;;5069919;28;9619;-79
2023/09/11 14:31:55;;;;;;;;;1.00;1.00;;;;;;;;5069355;28;8901;-78
2023/09/11 14:34:22;;;;;;;;;1.00;1.00;;;;;;;;5068812;28;9701;-79
2023/09/11 14:36:49;;;;;;;;;0.00;0.00;;;;;;;;5069548;28;8871;-80
2023/09/11 14:39:16;;;;;;;;;0.40;0.40;;;;;;;;5069210;28;8872;-82
2023/09/11 14:41:45;;;;;;;;;0.60;0.60;;;;;;;;5070111;28;9721;-78
2023/09/11 14:44:12;;;;;;;;;0.80;0.80;;;;;;;;5070221;28;8860;-80